HKMO/MBA METAR and TAF weather

Enter ICAO airport designator
Station Type Date Time Source
HKMO METAR 2022/08/13 11:00 UTC NOAA

HKMO 131100Z 17014KT 9999 SCT024 27/20 Q1014 NOSIG


Station Type Date Time Source
HKMO Decoded METAR 2022/08/13 11:00 UTC NOAA

Mombasa, Kenya (HKMO) 04-02S 039-37E 55M
Aug 13, 2022 - 07:00 AM EDT / 2022.08.13 1100 UTC
Wind: from the S (170 degrees) at 16 MPH (14 KT):0
Visibility: greater than 7 mile(s):0
Sky conditions: partly cloudy
Temperature: 80 F (27 C)
Dew Point: 68 F (20 C)
Relative Humidity: 65%
Pressure (altimeter): 29.94 in. Hg (1014 hPa)
ob: HKMO 131100Z 17014KT 9999 SCT024 27/20 Q1014 NOSIG
cycle: 11

Station Type Date Time Source
HKMO TAF 2022/08/13 12:03 UTC NOAA

TAF TAF HKMO 131100Z 1312/1418 16010KT 9999 SCT024
BECMG 1318/1321 22005KT
TEMPO 1400/1404 -RA SCT020 BKN080
BECMG 1409/1412 16010KT NSW SCT025

Example: see airport list